Time;durP1;ratioP1;P1;durP2;ratioP2;P2;SDS_P1;SDS_P2;PMS_P1;PMS_P2;Temp;Humidity;BMP_temperature;BMP_pressure;BME280_temperature;BME280_humidity;BME280_pressure;Samples;Min_cycle;Max_cycle;Signal;HPM_P1;HPM_P2
2023/08/06 00:01:12;;;;;;;9.95;3.72;;;;;;;27.94;53.88;97553.56;5075886;28;20044;-74
2023/08/06 00:03:38;;;;;;;7.18;3.53;;;;;;;27.96;53.72;97538.06;5057711;28;20479;-75
2023/08/06 00:06:06;;;;;;;7.63;3.85;;;;;;;27.92;53.55;97523.53;5093064;28;20055;-75
2023/08/06 00:08:32;;;;;;;7.68;3.35;;;;;;;27.92;53.84;97537.72;5074436;28;20061;-75
2023/08/06 00:10:57;;;;;;;9.65;3.65;;;;;;;27.91;53.76;97538.00;5090761;28;20032;-76
2023/08/06 00:13:23;;;;;;;7.35;3.75;;;;;;;27.87;53.64;97540.38;5092514;28;20467;-75
2023/08/06 00:15:48;;;;;;;11.10;4.07;;;;;;;27.90;53.73;97547.13;5091205;28;20032;-75
2023/08/06 00:18:14;;;;;;;11.23;3.80;;;;;;;27.89;53.66;97543.59;5092367;28;20032;-75
2023/08/06 00:20:40;;;;;;;8.25;3.60;;;;;;;27.91;53.61;97548.72;5092012;28;20461;-76
2023/08/06 00:23:06;;;;;;;7.53;3.83;;;;;;;27.92;53.76;97544.97;5091342;28;20020;-75
2023/08/06 00:25:31;;;;;;;6.97;3.58;;;;;;;27.93;53.71;97535.88;5092506;28;20157;-75
2023/08/06 00:27:57;;;;;;;9.30;3.72;;;;;;;27.90;53.57;97534.50;5090705;28;20039;-76
2023/08/06 00:30:22;;;;;;;6.22;3.50;;;;;;;27.91;53.76;97533.44;5092317;28;20376;-75
2023/08/06 00:32:48;;;;;;;9.43;3.72;;;;;;;27.90;53.59;97533.72;5080300;28;20028;-75
2023/08/06 00:35:14;;;;;;;9.38;3.80;;;;;;;27.85;53.83;97531.81;5070888;28;20020;-74
2023/08/06 00:37:40;;;;;;;11.15;3.30;;;;;;;27.83;53.76;97530.44;5054570;28;20063;-74
2023/08/06 00:40:07;;;;;;;10.00;3.95;;;;;;;27.83;53.66;97533.91;5053905;28;20032;-75
2023/08/06 00:42:32;;;;;;;11.00;4.03;;;;;;;27.83;53.95;97535.78;5057900;28;20394;-75
2023/08/06 00:44:58;;;;;;;6.93;3.28;;;;;;;27.80;53.95;97529.91;5074390;28;20274;-75
2023/08/06 00:47:23;;;;;;;6.00;3.63;;;;;;;27.83;53.83;97523.19;5057754;28;20028;-75
2023/08/06 00:49:48;;;;;;;8.23;3.72;;;;;;;27.83;53.89;97533.13;5057445;28;20029;-75
2023/08/06 00:52:14;;;;;;;7.45;3.53;;;;;;;27.82;53.98;97532.31;5074404;28;20036;-75
2023/08/06 00:54:39;;;;;;;7.80;3.78;;;;;;;27.80;53.73;97526.41;5057734;28;20051;-75
2023/08/06 00:57:05;;;;;;;9.43;3.67;;;;;;;27.74;54.17;97524.75;5057605;28;20040;-75
2023/08/06 00:59:30;;;;;;;9.63;3.63;;;;;;;27.71;54.21;97522.59;5074275;28;20052;-75
2023/08/06 01:01:56;;;;;;;7.90;4.28;;;;;;;27.73;54.02;97523.94;5057332;28;20028;-75
2023/08/06 01:04:22;;;;;;;7.07;4.00;;;;;;;27.71;53.84;97509.19;5057135;28;20051;-76
2023/08/06 01:06:49;;;;;;;6.05;3.65;;;;;;;27.77;54.04;97516.22;5057381;28;20487;-74
2023/08/06 01:09:33;;;;;;;9.57;3.88;;;;;;;27.72;54.11;97510.78;5040932;28;20123;-76
2023/08/06 01:12:18;;;;;;;11.52;3.72;;;;;;;27.70;53.97;97499.53;5075044;28;20085;-76
2023/08/06 01:15:06;;;;;;;7.68;3.83;;;;;;;27.61;54.58;97505.38;5073827;28;20028;-76
2023/08/06 01:17:31;;;;;;;7.93;3.78;;;;;;;27.65;54.53;97502.19;5073836;28;20024;-76
2023/08/06 01:19:57;;;;;;;9.20;3.90;;;;;;;27.60;54.64;97497.59;5057277;28;20043;-76
2023/08/06 01:22:22;;;;;;;6.95;3.70;;;;;;;27.59;54.63;97490.59;5073767;28;20025;-76
2023/08/06 01:24:49;;;;;;;7.68;3.83;;;;;;;27.63;54.40;97489.03;5073781;28;20025;-75
2023/08/06 01:27:29;;;;;;;9.07;3.95;;;;;;;27.65;54.58;97494.13;5056076;28;20041;-75
2023/08/06 01:30:04;;;;;;;9.23;3.85;;;;;;;27.63;54.80;97489.03;5057389;28;20106;-76
2023/08/06 01:32:30;;;;;;;10.00;3.83;;;;;;;27.62;54.60;97482.84;5074646;28;20020;-76
2023/08/06 01:34:56;;;;;;;8.35;3.70;;;;;;;27.60;54.83;97474.25;5040030;28;20040;-76
2023/08/06 01:37:21;;;;;;;7.22;4.07;;;;;;;27.58;55.03;97471.03;5040197;28;20074;-76
2023/08/06 01:39:47;;;;;;;9.10;3.80;;;;;;;27.53;54.93;97460.28;5056744;28;20415;-77
2023/08/06 01:42:12;;;;;;;11.40;3.47;;;;;;;27.56;54.86;97470.50;5056393;28;20106;-76
2023/08/06 01:44:38;;;;;;;5.70;3.70;;;;;;;27.57;54.88;97465.94;5074295;28;20460;-71
2023/08/06 01:47:04;;;;;;;7.20;3.65;;;;;;;27.57;55.04;97453.34;5074561;28;20036;-72
2023/08/06 01:49:30;;;;;;;9.82;3.85;;;;;;;27.58;55.01;97451.47;5056324;28;20466;-72
2023/08/06 01:51:55;;;;;;;8.90;3.95;;;;;;;27.58;54.94;97452.28;5077393;28;20553;-73
2023/08/06 01:54:21;;;;;;;8.85;3.95;;;;;;;27.57;54.92;97447.97;5091966;28;20020;-72
2023/08/06 01:56:46;;;;;;;9.75;3.60;;;;;;;27.58;54.71;97452.28;5072903;28;20036;-74
2023/08/06 01:59:11;;;;;;;8.35;3.88;;;;;;;27.59;54.52;97451.19;5109380;28;20032;-73
2023/08/06 02:01:37;;;;;;;9.05;3.80;;;;;;;27.58;55.46;97448.81;5094222;28;20040;-76
2023/08/06 02:04:02;;;;;;;5.85;3.67;;;;;;;27.67;55.46;97446.44;5058499;28;20031;-73
2023/08/06 02:06:28;;;;;;;7.65;3.92;;;;;;;27.66;55.25;97442.94;5076108;28;20056;-76
2023/08/06 02:08:53;;;;;;;8.65;4.03;;;;;;;27.61;55.24;97445.56;5093385;28;20024;-73
2023/08/06 02:11:19;;;;;;;10.15;4.32;;;;;;;27.54;55.08;97437.78;5075930;28;20392;-74
2023/08/06 02:13:45;;;;;;;8.52;3.67;;;;;;;27.51;55.28;97440.16;5110019;28;20086;-74
2023/08/06 02:16:11;;;;;;;8.80;4.03;;;;;;;27.49;55.26;97437.75;5110080;28;20032;-75
2023/08/06 02:18:36;;;;;;;6.43;4.07;;;;;;;27.50;55.09;97431.34;5092876;28;20502;-74
2023/08/06 02:21:02;;;;;;;11.35;4.03;;;;;;;27.49;54.75;97424.34;5109558;28;20048;-75
2023/08/06 02:23:27;;;;;;;6.05;3.53;;;;;;;27.49;54.93;97437.75;5094270;28;20082;-75
2023/08/06 02:26:03;;;;;;;8.43;3.75;;;;;;;27.42;55.15;97427.25;5093905;28;20108;-74
2023/08/06 02:28:29;;;;;;;7.72;3.60;;;;;;;27.47;54.81;97425.66;5075991;28;20031;-73
2023/08/06 02:30:55;;;;;;;8.85;3.55;;;;;;;27.48;54.86;97429.97;5109990;28;20035;-73
2023/08/06 02:33:20;;;;;;;5.80;3.80;;;;;;;27.43;55.20;97430.75;5093010;28;20051;-74
2023/08/06 02:35:46;;;;;;;10.30;4.03;;;;;;;27.48;54.83;97429.97;5109670;28;20060;-73
2023/08/06 02:38:11;;;;;;;6.88;3.72;;;;;;;27.39;54.88;97426.94;5093437;28;20433;-74
2023/08/06 02:40:43;;;;;;;6.10;3.72;;;;;;;27.34;55.10;97417.03;5075341;28;20039;-74
2023/08/06 02:43:08;;;;;;;10.55;3.58;;;;;;;27.36;55.12;97425.63;5076070;28;20114;-75
2023/08/06 02:45:34;;;;;;;7.95;3.85;;;;;;;27.37;55.02;97413.00;5092348;28;20082;-75
2023/08/06 02:47:59;;;;;;;10.82;3.88;;;;;;;27.41;54.83;97428.31;5093497;28;20024;-75
2023/08/06 02:50:25;;;;;;;7.43;3.80;;;;;;;27.45;54.90;97436.63;5075313;28;20093;-75
2023/08/06 02:52:50;;;;;;;8.80;4.13;;;;;;;27.44;54.78;97427.81;5092222;28;20060;-75
2023/08/06 02:55:16;;;;;;;6.05;3.58;;;;;;;27.48;54.88;97435.31;5075290;28;20097;-74
2023/08/06 02:57:41;;;;;;;8.07;3.92;;;;;;;27.46;54.53;97432.91;5092173;28;20115;-74
2023/08/06 03:00:07;;;;;;;8.93;3.90;;;;;;;27.45;54.79;97436.63;5108975;28;20054;-75
2023/08/06 03:02:33;;;;;;;7.65;4.10;;;;;;;27.40;54.81;97437.41;5108385;28;20047;-74
2023/08/06 03:04:58;;;;;;;8.45;3.85;;;;;;;27.46;54.59;97445.50;5074369;28;20044;-73
2023/08/06 03:07:24;;;;;;;6.40;3.80;;;;;;;27.41;54.92;97436.34;5091890;28;20035;-74
2023/08/06 03:09:49;;;;;;;9.00;4.05;;;;;;;27.40;54.86;97440.09;5092181;28;20526;-74
2023/08/06 03:12:15;;;;;;;11.30;4.40;;;;;;;27.38;54.87;97436.88;5074979;28;20040;-74
2023/08/06 03:14:40;;;;;;;7.90;4.07;;;;;;;27.42;54.65;97445.19;5091737;28;20043;-73
2023/08/06 03:17:06;;;;;;;9.88;3.90;;;;;;;27.44;54.60;97438.53;5108805;28;20056;-74
2023/08/06 03:19:31;;;;;;;8.48;3.67;;;;;;;27.42;54.72;97429.13;5074801;28;20032;-74
2023/08/06 03:21:57;;;;;;;7.30;3.78;;;;;;;27.47;54.82;97431.03;5108287;28;20036;-73
2023/08/06 03:24:22;;;;;;;11.13;4.00;;;;;;;27.47;54.58;97426.50;5081400;28;20032;-74
2023/08/06 03:26:48;;;;;;;5.88;3.47;;;;;;;27.46;54.29;97413.34;5069713;28;20063;-73
2023/08/06 03:29:13;;;;;;;8.30;3.80;;;;;;;27.52;54.44;97418.47;5055060;28;20029;-74
2023/08/06 03:31:39;;;;;;;5.82;3.58;;;;;;;27.54;54.17;97410.97;5071356;28;20056;-74
2023/08/06 03:34:04;;;;;;;7.43;3.80;;;;;;;27.61;53.70;97408.88;5071333;28;20032;-74
2023/08/06 03:36:30;;;;;;;7.70;3.60;;;;;;;27.70;53.65;97413.75;5037999;28;20404;-74
2023/08/06 03:38:56;;;;;;;7.80;4.07;;;;;;;27.78;53.40;97410.56;5088974;28;20042;-74
2023/08/06 03:41:21;;;;;;;8.75;4.00;;;;;;;27.87;53.09;97395.59;5074935;28;20035;-74
2023/08/06 03:43:47;;;;;;;8.85;3.70;;;;;;;28.24;52.01;97410.75;5066812;28;20068;-75
2023/08/06 03:46:12;;;;;;;8.52;4.03;;;;;;;28.56;51.24;97408.94;5089587;28;20034;-75
2023/08/06 03:48:38;;;;;;;10.02;3.78;;;;;;;28.86;50.46;97410.88;5091206;28;20036;-76
2023/08/06 03:51:03;;;;;;;6.68;3.50;;;;;;;29.10;49.70;97405.81;5079015;28;20047;-75
2023/08/06 03:53:29;;;;;;;7.28;3.72;;;;;;;29.35;49.19;97406.84;5054710;28;20032;-75
2023/08/06 03:55:55;;;;;;;8.73;3.40;;;;;;;29.59;48.24;97417.84;5054000;28;20040;-74
2023/08/06 03:58:21;;;;;;;9.32;3.40;;;;;;;29.87;47.33;97403.00;5071266;28;20044;-75
2023/08/06 04:00:46;;;;;;;9.00;3.33;;;;;;;30.19;46.97;97401.78;5071131;28;20037;-74
2023/08/06 04:03:12;;;;;;;13.43;3.67;;;;;;;30.52;46.18;97396.78;5072110;28;20040;-75
2023/08/06 04:05:37;;;;;;;8.35;3.30;;;;;;;30.79;44.73;97400.88;5062372;28;20047;-74
2023/08/06 04:08:03;;;;;;;5.53;3.35;;;;;;;31.09;44.28;97405.25;5091237;28;20089;-75
2023/08/06 04:10:28;;;;;;;10.23;3.50;;;;;;;31.42;43.60;97410.06;5074301;28;20024;-74
2023/08/06 04:12:54;;;;;;;11.32;3.00;;;;;;;31.71;42.94;97412.75;5107991;28;20024;-74
2023/08/06 04:15:19;;;;;;;8.85;3.35;;;;;;;32.00;42.30;97409.97;5092488;28;20051;-74
2023/08/06 04:17:45;;;;;;;9.85;3.55;;;;;;;32.33;41.49;97401.22;5078453;28;20028;-74
2023/08/06 04:20:10;;;;;;;8.90;3.03;;;;;;;32.62;40.88;97401.03;5095356;28;20117;-74
2023/08/06 04:22:36;;;;;;;8.40;3.00;;;;;;;32.88;40.58;97398.78;5077538;28;20047;-75
2023/08/06 04:25:02;;;;;;;11.30;2.83;;;;;;;33.13;39.52;97404.84;5095097;28;20105;-74
2023/08/06 04:27:27;;;;;;;11.98;3.13;;;;;;;33.52;38.70;97415.25;5095239;28;20078;-78
2023/08/06 04:29:53;;;;;;;14.23;3.40;;;;;;;34.16;38.27;97409.16;5094878;28;20188;-82
2023/08/06 04:32:19;;;;;;;11.88;2.97;;;;;;;34.78;36.88;97410.53;5096353;28;20028;-80
2023/08/06 04:34:44;;;;;;;9.63;2.83;;;;;;;35.31;35.72;97398.09;5094039;28;20063;-81
2023/08/06 04:37:10;;;;;;;7.45;2.95;;;;;;;35.85;34.72;97404.25;5057928;28;20479;-77
2023/08/06 04:39:35;;;;;;;6.93;2.55;;;;;;;36.28;34.05;97391.91;5075776;28;20047;-83
2023/08/06 04:42:01;;;;;;;9.45;2.92;;;;;;;36.75;33.60;97397.53;5074535;28;20484;-83
2023/08/06 04:44:26;;;;;;;8.98;2.70;;;;;;;37.14;32.86;97403.03;5056707;28;20056;-84
2023/08/06 04:46:52;;;;;;;8.05;3.10;;;;;;;37.52;32.02;97407.75;5076821;28;20055;-78
2023/08/06 04:49:20;;;;;;;5.05;2.28;;;;;;;37.87;31.40;97399.44;5095900;28;20032;-78
2023/08/06 04:51:46;;;;;;;10.25;2.47;;;;;;;37.85;31.33;97404.41;5061554;28;20024;-86
2023/08/06 04:54:11;;;;;;;6.97;2.70;;;;;;;38.27;30.66;97401.78;5077518;28;20089;-85
2023/08/06 04:56:37;;;;;;;5.32;2.35;;;;;;;38.46;30.68;97404.03;5096022;28;20063;-87
2023/08/06 04:59:02;;;;;;;9.30;2.63;;;;;;;38.67;30.37;97404.03;5096123;28;20035;-88
2023/08/06 05:01:28;;;;;;;6.30;2.50;;;;;;;39.16;29.58;97399.91;5112656;28;20047;-89
2023/08/06 05:03:54;;;;;;;4.88;2.15;;;;;;;39.61;29.23;97402.59;5095047;28;20119;-89
2023/08/06 05:06:19;;;;;;;5.07;2.30;;;;;;;39.67;28.95;97399.66;5078461;28;20522;-84
2023/08/06 05:08:45;;;;;;;6.72;2.63;;;;;;;40.24;27.54;97398.69;5095698;28;20074;-86
2023/08/06 05:11:10;;;;;;;8.63;2.60;;;;;;;40.66;27.26;97392.88;5096324;28;20045;-83
2023/08/06 05:13:36;;;;;;;6.65;2.22;;;;;;;40.83;27.15;97389.06;5078741;28;20067;-83
2023/08/06 05:16:01;;;;;;;5.50;2.33;;;;;;;41.56;26.07;97391.69;5077293;28;20059;-82
2023/08/06 05:18:27;;;;;;;5.38;2.30;;;;;;;41.83;25.13;97384.53;5077570;28;20039;-80
2023/08/06 05:20:52;;;;;;;8.95;2.42;;;;;;;40.56;26.74;97385.16;5094176;28;20161;-81
2023/08/06 05:23:18;;;;;;;6.00;2.08;;;;;;;39.61;28.71;97393.59;5095419;28;20024;-87
2023/08/06 05:25:43;;;;;;;5.30;2.35;;;;;;;39.64;28.36;97390.19;5100499;28;20036;-88
2023/08/06 05:28:09;;;;;;;9.32;3.35;;;;;;;39.57;28.30;97389.97;5096653;28;20471;-79
2023/08/06 05:30:38;;;;;;;32.40;8.32;;;;;;;40.27;26.39;97383.53;5075890;28;20044;-79
2023/08/06 05:33:04;;;;;;;36.47;9.63;;;;;;;40.41;26.10;97389.44;5049848;28;20039;-79
2023/08/06 05:35:29;;;;;;;18.13;6.40;;;;;;;39.82;26.99;97387.22;5076096;28;20036;-75
2023/08/06 05:37:54;;;;;;;18.33;5.97;;;;;;;39.33;27.70;97396.16;5093966;28;20028;-77
2023/08/06 05:40:20;;;;;;;27.45;7.90;;;;;;;38.53;28.51;97396.09;5077089;28;20046;-77
2023/08/06 05:42:45;;;;;;;33.63;8.70;;;;;;;37.86;29.12;97381.50;5088002;28;20067;-80
2023/08/06 05:45:11;;;;;;;23.45;7.20;;;;;;;37.32;30.65;97382.03;5075401;28;20033;-79
2023/08/06 05:47:37;;;;;;;27.80;7.30;;;;;;;36.78;31.54;97373.53;5058015;28;20028;-85
2023/08/06 05:50:03;;;;;;;17.55;6.07;;;;;;;37.20;31.14;97371.03;5073584;28;20071;-80
2023/08/06 05:52:28;;;;;;;17.60;6.38;;;;;;;36.88;31.35;97375.88;5047026;28;20081;-81
2023/08/06 05:54:55;;;;;;;13.30;5.22;;;;;;;36.44;32.10;97372.41;5081770;28;20040;-80
2023/08/06 05:57:20;;;;;;;18.85;5.80;;;;;;;36.06;32.97;97371.09;5086692;28;20078;-81
2023/08/06 05:59:46;;;;;;;15.30;5.95;;;;;;;35.65;33.52;97364.88;5087859;28;20459;-76
2023/08/06 06:02:11;;;;;;;18.85;6.30;;;;;;;35.57;33.79;97365.66;5075361;28;20036;-79
2023/08/06 06:04:37;;;;;;;16.55;5.43;;;;;;;36.47;32.49;97358.16;5058754;28;20044;-80
2023/08/06 06:07:02;;;;;;;14.77;5.07;;;;;;;36.15;33.04;97342.00;5077317;28;20096;-80
2023/08/06 06:09:28;;;;;;;19.30;4.90;;;;;;;36.54;32.33;97353.84;5076730;28;20024;-81
2023/08/06 06:11:53;;;;;;;11.00;4.32;;;;;;;37.72;30.54;97337.38;5076913;28;20028;-80
2023/08/06 06:14:19;;;;;;;10.65;3.75;;;;;;;38.04;30.07;97337.81;5076906;28;20024;-78
2023/08/06 06:16:45;;;;;;;10.98;4.15;;;;;;;37.80;30.45;97344.72;5076830;28;20070;-80
2023/08/06 06:19:11;;;;;;;9.57;3.70;;;;;;;37.49;31.11;97345.78;5076376;28;20038;-80
2023/08/06 06:21:37;;;;;;;11.02;4.30;;;;;;;36.89;31.77;97344.88;5092825;28;20101;-79
2023/08/06 06:24:03;;;;;;;10.40;4.20;;;;;;;36.91;31.66;97346.16;5093799;28;20127;-79
2023/08/06 06:26:29;;;;;;;9.73;3.90;;;;;;;36.98;31.67;97342.13;5075988;28;20028;-80
2023/08/06 06:28:55;;;;;;;6.90;3.40;;;;;;;37.11;31.25;97349.28;5092895;28;20123;-80
2023/08/06 06:31:20;;;;;;;12.40;4.00;;;;;;;36.66;31.94;97342.34;5093262;28;20071;-80
2023/08/06 06:33:46;;;;;;;7.10;3.42;;;;;;;36.34;32.77;97349.06;5092507;28;20036;-80
2023/08/06 06:36:12;;;;;;;12.57;4.70;;;;;;;35.90;33.44;97350.91;5076611;28;20024;-79
2023/08/06 06:38:38;;;;;;;10.13;4.68;;;;;;;35.47;34.28;97363.22;5109510;28;20471;-80
2023/08/06 06:41:04;;;;;;;12.13;5.22;;;;;;;35.08;34.89;97356.66;5076032;28;20043;-79
2023/08/06 06:43:29;;;;;;;10.88;5.00;;;;;;;34.88;35.45;97363.41;5093600;28;20039;-79
2023/08/06 06:45:58;;;;;;;9.75;4.80;;;;;;;34.47;36.07;97359.72;5110577;28;20024;-80
2023/08/06 06:48:25;;;;;;;13.18;5.20;;;;;;;34.15;36.82;97368.84;5093221;28;20028;-79
2023/08/06 06:50:51;;;;;;;15.02;5.10;;;;;;;33.91;37.14;97375.31;5059481;28;20063;-79
2023/08/06 06:53:16;;;;;;;11.82;5.03;;;;;;;33.66;37.81;97369.28;5094346;28;20036;-78
2023/08/06 06:55:42;;;;;;;13.55;5.05;;;;;;;33.43;38.25;97360.28;5092881;28;20032;-83
2023/08/06 06:58:08;;;;;;;13.30;5.45;;;;;;;33.23;38.64;97339.81;5075826;28;20044;-78
2023/08/06 07:00:36;;;;;;;14.93;5.20;;;;;;;32.97;38.88;97353.78;5092634;28;20144;-79
2023/08/06 07:03:01;;;;;;;12.00;5.40;;;;;;;32.60;39.66;97368.91;5075273;28;20070;-80
2023/08/06 07:05:27;;;;;;;14.73;5.32;;;;;;;32.45;40.14;97366.44;5075336;28;20145;-80
2023/08/06 07:07:52;;;;;;;12.20;5.13;;;;;;;32.18;40.47;97364.41;5071155;28;20475;-79
2023/08/06 07:10:19;;;;;;;15.32;5.68;;;;;;;31.98;41.17;97355.50;5041314;28;20506;-87
2023/08/06 07:12:45;;;;;;;16.73;7.53;;;;;;;31.74;41.29;97383.31;5070476;28;20075;-76
2023/08/06 07:15:11;;;;;;;13.70;6.65;;;;;;;31.48;41.83;97417.00;5066531;28;20472;-83
2023/08/06 07:17:37;;;;;;;10.85;5.13;;;;;;;31.26;41.19;97431.75;5071699;28;20024;-77
2023/08/06 07:20:03;;;;;;;10.32;4.88;;;;;;;31.18;40.37;97427.00;5054825;28;20499;-76
2023/08/06 07:22:28;;;;;;;8.95;4.80;;;;;;;31.07;40.97;97425.47;5088395;28;20047;-76
2023/08/06 07:24:54;;;;;;;8.93;5.50;;;;;;;30.82;43.47;97411.06;5069906;28;20139;-76
2023/08/06 07:27:19;;;;;;;13.43;5.40;;;;;;;30.57;43.24;97420.13;5053898;28;20145;-77
2023/08/06 07:29:45;;;;;;;12.05;5.47;;;;;;;30.41;43.39;97428.34;5054605;28;20028;-77
2023/08/06 07:32:10;;;;;;;10.02;4.97;;;;;;;30.39;42.94;97443.94;5052455;28;20504;-77
2023/08/06 07:34:36;;;;;;;12.55;6.00;;;;;;;30.34;44.20;97452.03;5053664;28;20040;-76
2023/08/06 07:37:02;;;;;;;10.20;4.82;;;;;;;30.26;43.79;97445.31;5083884;28;20092;-77
2023/08/06 07:39:28;;;;;;;9.88;5.40;;;;;;;30.32;43.84;97424.59;5071007;28;20033;-76
2023/08/06 07:41:54;;;;;;;10.45;5.55;;;;;;;30.28;44.68;97418.97;5087149;28;20059;-78
2023/08/06 07:44:19;;;;;;;11.40;5.50;;;;;;;30.27;45.26;97373.47;5053110;28;20033;-78
2023/08/06 07:46:45;;;;;;;12.07;5.53;;;;;;;30.23;45.13;97316.69;5091004;28;20036;-77
2023/08/06 07:49:13;;;;;;;10.40;5.60;;;;;;;30.23;45.69;97292.47;5037443;28;20036;-78
2023/08/06 07:51:39;;;;;;;11.23;5.80;;;;;;;30.13;46.28;97282.59;5054337;28;20126;-78
2023/08/06 07:54:05;;;;;;;14.00;5.53;;;;;;;29.97;46.98;97302.63;5066380;28;20406;-73
2023/08/06 07:56:30;;;;;;;16.15;6.22;;;;;;;29.87;46.85;97310.72;5058860;28;20036;-77
2023/08/06 07:58:59;;;;;;;12.18;5.72;;;;;;;29.72;47.42;97293.56;5092000;28;20036;-79
2023/08/06 08:01:26;;;;;;;13.35;5.75;;;;;;;29.54;47.97;97291.50;5093245;28;20039;-76
2023/08/06 08:03:53;;;;;;;9.07;5.53;;;;;;;29.20;48.83;97276.03;5053034;28;20028;-80
2023/08/06 08:06:19;;;;;;;14.38;5.80;;;;;;;28.87;49.56;97264.81;5073704;28;20419;-72
2023/08/06 08:08:44;;;;;;;11.20;5.68;;;;;;;28.84;49.65;97327.94;5111234;28;20024;-79
2023/08/06 08:11:11;;;;;;;12.68;6.25;;;;;;;28.86;49.66;97330.31;5092697;28;20032;-83
2023/08/06 08:13:36;;;;;;;12.02;5.70;;;;;;;28.91;49.40;97318.78;5071775;28;20046;-69
2023/08/06 08:16:02;;;;;;;10.95;5.53;;;;;;;28.77;50.04;97359.63;5089870;28;20043;-71
2023/08/06 08:18:27;;;;;;;8.40;5.43;;;;;;;28.83;49.52;97385.41;5090148;28;20100;-72
2023/08/06 08:20:53;;;;;;;14.38;5.65;;;;;;;28.92;49.29;97341.88;5071146;28;20052;-73
2023/08/06 08:23:18;;;;;;;8.90;5.28;;;;;;;28.93;49.67;97355.03;5072419;28;20043;-76
2023/08/06 08:25:44;;;;;;;11.15;5.75;;;;;;;29.01;49.24;97370.59;5073115;28;20426;-73
2023/08/06 08:28:09;;;;;;;11.80;5.47;;;;;;;29.08;49.20;97353.41;5087324;28;20024;-70
2023/08/06 08:30:35;;;;;;;15.48;5.18;;;;;;;29.21;49.08;97339.47;5051328;28;20519;-76
2023/08/06 08:33:00;;;;;;;14.85;5.25;;;;;;;29.27;49.12;97340.22;5068075;28;20503;-80
2023/08/06 08:35:26;;;;;;;9.55;5.57;;;;;;;29.37;48.76;97341.03;5056303;28;20028;-78
2023/08/06 08:37:51;;;;;;;11.70;5.50;;;;;;;29.46;49.14;97337.75;5087109;28;20122;-74
2023/08/06 08:40:18;;;;;;;9.40;5.60;;;;;;;29.47;48.77;97329.44;5071827;28;20553;-77
2023/08/06 08:42:44;;;;;;;15.53;5.67;;;;;;;29.58;48.58;97347.13;5073240;28;20506;-73
2023/08/06 08:45:13;;;;;;;13.98;5.65;;;;;;;29.62;48.60;97339.34;5104423;28;20281;-75
2023/08/06 08:47:42;;;;;;;11.95;5.50;;;;;;;29.62;48.27;97335.81;5070786;28;20039;-79
2023/08/06 08:50:09;;;;;;;17.25;6.30;;;;;;;29.58;48.33;97332.88;5060499;28;20036;-82
2023/08/06 08:52:35;;;;;;;12.73;5.67;;;;;;;29.67;48.09;97322.38;5076810;28;20054;-82
2023/08/06 08:55:01;;;;;;;14.00;6.53;;;;;;;29.80;47.99;97315.63;5073093;28;20063;-78
2023/08/06 08:57:26;;;;;;;13.18;7.03;;;;;;;29.95;47.39;97307.44;5071720;28;20227;-78
2023/08/06 08:59:52;;;;;;;13.43;6.65;;;;;;;30.11;47.48;97306.28;5093431;28;20020;-84
2023/08/06 09:02:18;;;;;;;11.38;6.20;;;;;;;30.16;46.84;97323.47;5105104;28;20040;-83
2023/08/06 09:04:44;;;;;;;10.35;6.70;;;;;;;30.28;46.46;97324.75;5078248;28;20117;-82
2023/08/06 09:07:11;;;;;;;15.50;6.25;;;;;;;31.47;44.08;97329.94;5090462;28;20028;-81
2023/08/06 09:09:37;;;;;;;9.82;6.13;;;;;;;32.38;42.51;97320.91;5050812;28;20086;-76
2023/08/06 09:12:12;;;;;;;14.90;6.10;;;;;;;33.07;41.12;97323.06;5061608;28;20036;-78
2023/08/06 09:14:38;;;;;;;10.60;5.30;;;;;;;33.03;41.13;97323.94;5086921;28;20055;-80
2023/08/06 09:17:04;;;;;;;9.65;5.18;;;;;;;32.79;41.25;97323.00;5058903;28;20059;-79
2023/08/06 09:19:30;;;;;;;8.00;5.00;;;;;;;32.77;41.38;97327.09;5056583;28;20028;-75
2023/08/06 09:21:55;;;;;;;7.07;5.32;;;;;;;32.77;41.28;97344.09;5057066;28;20074;-77
2023/08/06 09:24:22;;;;;;;9.90;5.60;;;;;;;32.64;41.73;97342.19;5040723;28;20997;-79
2023/08/06 09:26:47;;;;;;;10.88;5.25;;;;;;;32.47;41.68;97356.97;5055843;28;20561;-80
2023/08/06 09:29:13;;;;;;;12.68;5.32;;;;;;;32.35;41.74;97353.91;5075297;28;20068;-77
2023/08/06 09:31:42;;;;;;;10.00;5.50;;;;;;;32.25;42.00;97349.47;5081444;28;20028;-78
2023/08/06 09:34:14;;;;;;;9.70;5.30;;;;;;;32.20;42.06;97346.84;5069472;28;20028;-77
2023/08/06 09:36:53;;;;;;;8.73;5.43;;;;;;;32.25;42.18;97337.88;5070065;28;20065;-77
2023/08/06 09:39:27;;;;;;;13.40;5.63;;;;;;;32.80;41.00;97327.31;5080404;28;20035;-77
2023/08/06 09:41:55;;;;;;;11.43;5.32;;;;;;;33.46;40.06;97310.16;5066929;28;20067;-78
2023/08/06 09:44:23;;;;;;;8.23;5.40;;;;;;;33.87;39.37;97325.56;5071285;28;20028;-76
2023/08/06 09:46:56;;;;;;;9.57;6.18;;;;;;;34.20;38.15;97326.19;5056528;28;20028;-77
2023/08/06 09:49:42;;;;;;;13.95;6.28;;;;;;;34.27;38.15;97314.16;5064013;28;20038;-77
2023/08/06 09:52:15;;;;;;;15.48;6.50;;;;;;;34.29;37.41;97315.47;5090327;28;20046;-77
2023/08/06 09:54:41;;;;;;;15.50;6.43;;;;;;;34.28;37.16;97305.72;5076061;28;20149;-76
2023/08/06 09:57:07;;;;;;;14.48;6.50;;;;;;;34.31;36.95;97282.66;5075782;28;20028;-76
2023/08/06 09:59:33;;;;;;;14.20;6.60;;;;;;;33.87;37.53;97296.63;5075441;28;20525;-75
2023/08/06 10:01:59;;;;;;;11.27;6.18;;;;;;;33.63;38.06;97296.03;5092671;28;20028;-75
2023/08/06 10:04:24;;;;;;;11.00;8.00;;;;;;;33.59;37.94;97293.13;5075605;28;20032;-76
2023/08/06 10:06:50;;;;;;;13.82;7.13;;;;;;;33.59;38.07;97287.72;5082430;28;20036;-76
2023/08/06 10:09:16;;;;;;;10.13;6.55;;;;;;;33.74;37.87;97283.13;5054745;28;20044;-76
2023/08/06 10:11:43;;;;;;;8.23;5.72;;;;;;;34.07;37.01;97281.03;5055325;28;20478;-77
2023/08/06 10:14:12;;;;;;;;;;;;;;;33.94;37.19;97295.38;5055593;28;20079;-78
2023/08/06 10:16:37;;;;;;;16.33;5.60;;;;;;;33.71;37.23;97288.00;5071738;28;19921;-76
2023/08/06 10:19:03;;;;;;;14.75;7.07;;;;;;;33.70;37.46;97299.97;5073201;28;20030;-85
2023/08/06 10:21:37;;;;;;;8.75;5.60;;;;;;;33.47;37.84;97301.75;5060970;28;20063;-85
2023/08/06 10:24:04;;;;;;;9.15;6.15;;;;;;;33.43;37.95;97311.59;5075206;28;20085;-89
2023/08/06 10:26:31;;;;;;;17.60;8.88;;;;;;;33.27;38.25;97308.38;5064950;28;20032;-89
2023/08/06 10:28:57;;;;;;;13.07;8.00;;;;;;;33.08;38.44;97305.72;5094157;28;20077;-76
2023/08/06 10:31:55;;;;;;;13.30;6.70;;;;;;;33.17;38.56;97303.94;5089888;28;20056;-79
2023/08/06 10:34:22;;;;;;;9.85;6.82;;;;;;;33.12;38.15;97308.66;5088154;28;20490;-79
2023/08/06 10:36:48;;;;;;;11.13;6.63;;;;;;;33.07;37.69;97320.34;5074602;28;20035;-77
2023/08/06 10:39:14;;;;;;;11.52;7.38;;;;;;;32.92;37.82;97312.50;5074752;28;20442;-77
2023/08/06 10:41:41;;;;;;;10.77;7.20;;;;;;;32.54;38.94;97307.97;5053858;28;20058;-76
2023/08/06 10:44:08;;;;;;;11.88;7.70;;;;;;;32.51;39.12;97308.56;5057274;28;20491;-78
2023/08/06 10:46:33;;;;;;;16.08;8.77;;;;;;;32.05;39.99;97312.72;5092122;28;20063;-75
2023/08/06 10:48:59;;;;;;;15.20;9.07;;;;;;;31.98;40.43;97319.63;5057073;28;20126;-74
2023/08/06 10:51:24;;;;;;;11.90;8.70;;;;;;;31.92;40.20;97318.88;5074783;28;20066;-75
2023/08/06 10:53:50;;;;;;;14.45;9.27;;;;;;;31.86;40.53;97326.22;5058175;28;20555;-75
2023/08/06 10:56:17;;;;;;;16.65;11.63;;;;;;;31.75;40.81;97346.34;5074838;28;20035;-74
2023/08/06 10:58:43;;;;;;;15.87;10.07;;;;;;;31.81;41.74;97372.16;5073374;28;20106;-74
2023/08/06 11:01:09;;;;;;;9.80;6.32;;;;;;;31.79;39.62;97370.84;5090806;28;20051;-76
2023/08/06 11:03:34;;;;;;;7.35;5.05;;;;;;;31.58;39.29;97375.66;5074268;28;20483;-75
2023/08/06 11:06:00;;;;;;;6.90;5.25;;;;;;;31.51;38.51;97379.47;5073815;28;20048;-74
2023/08/06 11:08:26;;;;;;;4.82;3.53;;;;;;;31.31;38.67;97369.72;5073247;28;20035;-73
2023/08/06 11:10:52;;;;;;;5.85;3.60;;;;;;;31.15;39.07;97385.25;5089822;28;20020;-75
2023/08/06 11:13:18;;;;;;;6.45;3.72;;;;;;;31.16;39.49;97392.22;5074489;28;20078;-75
2023/08/06 11:15:44;;;;;;;5.72;3.20;;;;;;;31.11;38.93;97397.69;5074724;28;20100;-76
2023/08/06 11:18:10;;;;;;;6.32;2.70;;;;;;;30.98;39.01;97396.44;5090565;28;20046;-76
2023/08/06 11:20:36;;;;;;;5.10;2.67;;;;;;;31.09;38.97;97396.34;5057662;28;20028;-78
2023/08/06 11:23:01;;;;;;;6.20;2.60;;;;;;;31.14;39.29;97397.13;5073955;28;20499;-76
2023/08/06 11:25:27;;;;;;;3.30;2.45;;;;;;;31.24;39.19;97395.41;5056692;28;20044;-79